Flying Dolphin Xvii — SV9699 — position and weather

sailwx.info

Track history (hours):
 
Tides and Currents Weather Stations Pressure Air Temp Water Temp Dewpoint Dewpoint Depression Visibility Wind Speed Wind Dir Waves Ship Positions

Flying Dolphin Xvii

Last reported at 2018-May-24 14:01 UTC. Time now 2018-May-24 14:07 UTC.
Position N 37°55' E 023°36'.

Length 35 m.

Type: High speed craft. MMSI: 237023600.

Date/timePositionNaut miles runAvg speedWind from/ knotsBaromVisibWave heightAir tempDewpointWater temp
2018-May-24 14:01N 37°55' E 023°36'0 0.4
2018-May-24 13:31N 37°56' E 023°36'38 5.8
2018-May-24 07:01N 37°20' E 023°22'133.6
2018-May-24 06:59N 37°20' E 023°23'1013.3
2018-May-24 06:14N 37°30' E 023°28'311.3
2018-May-24 05:58N 37°32' E 023°26'1532.5
2018-May-24 05:31N 37°46' E 023°34'1223.3
2018-May-24 05:01N 37°57' E 023°39'  
2018-May-21 07:04N 37°57' E 023°39'0 0.3
2018-May-21 07:00N 37°57' E 023°39'0 0.0
2018-May-21 06:30N 37°57' E 023°39'0 0.0
2018-May-21 06:00N 37°57' E 023°39'1019.4
2018-May-21 05:28N 37°47' E 023°35'1431.6
2018-May-21 05:00N 37°34' E 023°26'12 1.2
2018-May-20 18:34N 37°22' E 023°22'232.9
2018-May-20 18:30N 37°22' E 023°25'813.0
2018-May-20 17:51N 37°29' E 023°29'411.4
2018-May-20 17:29N 37°32' E 023°25'1531.0
2018-May-20 17:01N 37°47' E 023°27'1326.4
2018-May-20 16:30N 37°57' E 023°39'0 0.0
2018-May-20 10:42N 37°57' E 023°39'0 0.7
2018-May-20 10:30N 37°57' E 023°38'1427.8
2018-May-20 10:00N 37°43' E 023°34'23 7.4
2018-May-20 06:55N 37°22' E 023°22'917.1
2018-May-20 06:24N 37°26' E 023°33'817.8
2018-May-20 05:56N 37°32' E 023°25'1433.3
2018-May-20 05:30N 37°44' E 023°33'1325.9
2018-May-20 05:01N 37°57' E 023°39'0 0.0
2018-May-20 04:30N 37°57' E 023°39'0 0.3
2018-May-20 04:00N 37°57' E 023°38'0 0.0
2018-May-19 16:39N 37°57' E 023°38'0 0.7
2018-May-19 16:30N 37°57' E 023°39'0 0.3
2018-May-19 16:00N 37°57' E 023°38'1326.9
2018-May-19 15:31N 37°47' E 023°26'612.0
2018-May-19 15:00N 37°43' E 023°21'4 8.5
2018-May-19 14:31N 37°46' E 023°25'1529.6
2018-May-19 14:00N 37°56' E 023°38'2 4.1
2018-May-19 13:31N 37°55' E 023°36'1317.6
2018-May-19 12:46N 37°45' E 023°26'623.0
2018-May-19 12:30N 37°49' E 023°30'1020.1
2018-May-19 12:00N 37°57' E 023°39'1122.9
2018-May-19 11:31N 37°48' E 023°29'816.4
2018-May-19 11:00N 37°43' E 023°21'3 6.7
2018-May-19 10:29N 37°45' E 023°25'1531.1
2018-May-19 10:01N 37°56' E 023°37'2 0.4
2018-May-19 05:55N 37°57' E 023°39'718.3
2018-May-19 05:31N 37°50' E 023°35'1631.7
2018-May-19 05:01N 37°35' E 023°27'917.3
2018-May-19 04:29N 37°27' E 023°33'9 0.9
2018-May-18 18:28N 37°22' E 023°23'715.1
2018-May-18 17:59N 37°25' E 023°32'816.9
2018-May-18 17:30N 37°32' E 023°25'1632.8
2018-May-18 17:00N 37°46' E 023°34'1122.7
2018-May-18 16:30N 37°57' E 023°39'0 0.0
2018-May-18 16:01N 37°57' E 023°39'1019.3
2018-May-18 15:30N 37°49' E 023°30'1019.6
2018-May-18 15:00N 37°43' E 023°21'4 7.1
2018-May-18 14:27N 37°45' E 023°26'1430.8
2018-May-18 14:01N 37°55' E 023°36'2 0.7
2018-May-18 10:41N 37°57' E 023°39'1 7.7
2018-May-18 10:31N 37°56' E 023°37'1632.9
2018-May-18 10:01N 37°40' E 023°31'1118.1
2018-May-18 09:24N 37°30' E 023°28'11 4.6
2018-May-18 06:59N 37°20' E 023°22'917.1
2018-May-18 06:29N 37°25' E 023°31'815.8
2018-May-18 06:00N 37°31' E 023°25'1632.1
2018-May-18 05:31N 37°45' E 023°34'1224.3
2018-May-18 05:00N 37°57' E 023°39'0 0.1
2018-May-18 04:30N 37°57' E 023°39'0 0.3
2018-May-18 04:00N 37°57' E 023°38'0 0.0
2018-May-17 12:23N 37°57' E 023°38'0 0.4
2018-May-17 12:00N 37°57' E 023°39'1020.0
2018-May-17 11:31N 37°49' E 023°30'1019.2
2018-May-17 11:00N 37°43' E 023°21'4 6.9
2018-May-17 10:28N 37°45' E 023°25'1532.4
2018-May-17 10:01N 37°56' E 023°37'1 2.2
2018-May-17 09:31N 37°55' E 023°36'1415.2
2018-May-17 08:37N 37°45' E 023°25'332.5
2018-May-17 08:31N 37°48' E 023°28'1224.8
2018-May-17 08:00N 37°57' E 023°39'0 0.4
2018-May-17 07:30N 37°57' E 023°38'0 0.0
2018-May-16 16:16N 37°57' E 023°38'0 0.7
2018-May-16 16:00N 37°57' E 023°39'1019.9
2018-May-16 15:31N 37°49' E 023°30'714.0
2018-May-16 15:00N 37°44' E 023°24'2 3.0
2018-May-16 14:30N 37°45' E 023°26'1326.3
2018-May-16 14:01N 37°55' E 023°36'0 0.5
2018-May-16 13:31N 37°55' E 023°36'1324.5
2018-May-16 12:59N 37°45' E 023°26'2 4.7
2018-May-16 12:31N 37°47' E 023°26'1427.8
2018-May-16 12:01N 37°57' E 023°39'0 0.0
2018-May-16 10:42N 37°57' E 023°39'313.3
2018-May-16 10:31N 37°55' E 023°36'1632.5
2018-May-16 10:00N 37°39' E 023°30'1017.0
2018-May-16 09:25N 37°30' E 023°28'11 4.6
2018-May-16 07:04N 37°20' E 023°22'233.1
2018-May-16 07:00N 37°21' E 023°24'714.5
2018-May-16 06:30N 37°25' E 023°31'816.4
2018-May-16 06:00N 37°32' E 023°25'1632.9
2018-May-16 05:30N 37°46' E 023°34'1121.8
2018-May-16 05:00N 37°57' E 023°39'0 0.0
2018-May-15 14:53N 37°57' E 023°39'410.4
2018-May-15 14:30N 37°58' E 023°34'0 0.0
2018-May-15 06:55N 37°58' E 023°34'0 0.0
2018-May-15 06:29N 37°58' E 023°34'0 0.1
2018-May-15 06:00N 37°58' E 023°34'3 6.8
2018-May-15 05:30N 37°56' E 023°38'  
Track history (hours):
 
Tides and Currents Weather Stations Pressure Air Temp Water Temp Dewpoint Dewpoint Depression Visibility Wind Speed Wind Dir Waves Ship Positions

Flying Dolphin Xvii

Last reported at 2018-May-24 14:01 UTC. Time now 2018-May-24 14:07 UTC.
Position N 37°55' E 023°36'.

Length 35 m.

Type: High speed craft. MMSI: 237023600.

Date/timePositionNaut miles runAvg speedWind from/ knotsBaromVisibWave heightAir tempDewpointWater temp
2018-May-24 14:01N 37°55' E 023°36'0 0.4
2018-May-24 13:31N 37°56' E 023°36'38 5.8
2018-May-24 07:01N 37°20' E 023°22'133.6
2018-May-24 06:59N 37°20' E 023°23'1013.3
2018-May-24 06:14N 37°30' E 023°28'311.3
2018-May-24 05:58N 37°32' E 023°26'1532.5
2018-May-24 05:31N 37°46' E 023°34'1223.3
2018-May-24 05:01N 37°57' E 023°39'  
2018-May-21 07:04N 37°57' E 023°39'0 0.3
2018-May-21 07:00N 37°57' E 023°39'0 0.0
2018-May-21 06:30N 37°57' E 023°39'0 0.0
2018-May-21 06:00N 37°57' E 023°39'1019.4
2018-May-21 05:28N 37°47' E 023°35'1431.6
2018-May-21 05:00N 37°34' E 023°26'12 1.2
2018-May-20 18:34N 37°22' E 023°22'232.9
2018-May-20 18:30N 37°22' E 023°25'813.0
2018-May-20 17:51N 37°29' E 023°29'411.4
2018-May-20 17:29N 37°32' E 023°25'1531.0
2018-May-20 17:01N 37°47' E 023°27'1326.4
2018-May-20 16:30N 37°57' E 023°39'0 0.0
2018-May-20 10:42N 37°57' E 023°39'0 0.7
2018-May-20 10:30N 37°57' E 023°38'1427.8
2018-May-20 10:00N 37°43' E 023°34'23 7.4
2018-May-20 06:55N 37°22' E 023°22'917.1
2018-May-20 06:24N 37°26' E 023°33'817.8
2018-May-20 05:56N 37°32' E 023°25'1433.3
2018-May-20 05:30N 37°44' E 023°33'1325.9
2018-May-20 05:01N 37°57' E 023°39'0 0.0
2018-May-20 04:30N 37°57' E 023°39'0 0.3
2018-May-20 04:00N 37°57' E 023°38'0 0.0
2018-May-19 16:39N 37°57' E 023°38'0 0.7
2018-May-19 16:30N 37°57' E 023°39'0 0.3
2018-May-19 16:00N 37°57' E 023°38'1326.9
2018-May-19 15:31N 37°47' E 023°26'612.0
2018-May-19 15:00N 37°43' E 023°21'4 8.5
2018-May-19 14:31N 37°46' E 023°25'1529.6
2018-May-19 14:00N 37°56' E 023°38'2 4.1
2018-May-19 13:31N 37°55' E 023°36'1317.6
2018-May-19 12:46N 37°45' E 023°26'623.0
2018-May-19 12:30N 37°49' E 023°30'1020.1
2018-May-19 12:00N 37°57' E 023°39'1122.9
2018-May-19 11:31N 37°48' E 023°29'816.4
2018-May-19 11:00N 37°43' E 023°21'3 6.7
2018-May-19 10:29N 37°45' E 023°25'1531.1
2018-May-19 10:01N 37°56' E 023°37'2 0.4
2018-May-19 05:55N 37°57' E 023°39'718.3
2018-May-19 05:31N 37°50' E 023°35'1631.7
2018-May-19 05:01N 37°35' E 023°27'917.3
2018-May-19 04:29N 37°27' E 023°33'9 0.9
2018-May-18 18:28N 37°22' E 023°23'715.1
2018-May-18 17:59N 37°25' E 023°32'816.9
2018-May-18 17:30N 37°32' E 023°25'1632.8
2018-May-18 17:00N 37°46' E 023°34'1122.7
2018-May-18 16:30N 37°57' E 023°39'0 0.0
2018-May-18 16:01N 37°57' E 023°39'1019.3
2018-May-18 15:30N 37°49' E 023°30'1019.6
2018-May-18 15:00N 37°43' E 023°21'4 7.1
2018-May-18 14:27N 37°45' E 023°26'1430.8
2018-May-18 14:01N 37°55' E 023°36'2 0.7
2018-May-18 10:41N 37°57' E 023°39'1 7.7
2018-May-18 10:31N 37°56' E 023°37'1632.9
2018-May-18 10:01N 37°40' E 023°31'1118.1
2018-May-18 09:24N 37°30' E 023°28'11 4.6
2018-May-18 06:59N 37°20' E 023°22'917.1
2018-May-18 06:29N 37°25' E 023°31'815.8
2018-May-18 06:00N 37°31' E 023°25'1632.1
2018-May-18 05:31N 37°45' E 023°34'1224.3
2018-May-18 05:00N 37°57' E 023°39'0 0.1
2018-May-18 04:30N 37°57' E 023°39'0 0.3
2018-May-18 04:00N 37°57' E 023°38'0 0.0
2018-May-17 12:23N 37°57' E 023°38'0 0.4
2018-May-17 12:00N 37°57' E 023°39'1020.0
2018-May-17 11:31N 37°49' E 023°30'1019.2
2018-May-17 11:00N 37°43' E 023°21'4 6.9
2018-May-17 10:28N 37°45' E 023°25'1532.4
2018-May-17 10:01N 37°56' E 023°37'1 2.2
2018-May-17 09:31N 37°55' E 023°36'1415.2
2018-May-17 08:37N 37°45' E 023°25'332.5
2018-May-17 08:31N 37°48' E 023°28'1224.8
2018-May-17 08:00N 37°57' E 023°39'0 0.4
2018-May-17 07:30N 37°57' E 023°38'0 0.0
2018-May-16 16:16N 37°57' E 023°38'0 0.7
2018-May-16 16:00N 37°57' E 023°39'1019.9
2018-May-16 15:31N 37°49' E 023°30'714.0
2018-May-16 15:00N 37°44' E 023°24'2 3.0
2018-May-16 14:30N 37°45' E 023°26'1326.3
2018-May-16 14:01N 37°55' E 023°36'0 0.5
2018-May-16 13:31N 37°55' E 023°36'1324.5
2018-May-16 12:59N 37°45' E 023°26'2 4.7
2018-May-16 12:31N 37°47' E 023°26'1427.8
2018-May-16 12:01N 37°57' E 023°39'0 0.0
2018-May-16 10:42N 37°57' E 023°39'313.3
2018-May-16 10:31N 37°55' E 023°36'1632.5
2018-May-16 10:00N 37°39' E 023°30'1017.0
2018-May-16 09:25N 37°30' E 023°28'11 4.6
2018-May-16 07:04N 37°20' E 023°22'233.1
2018-May-16 07:00N 37°21' E 023°24'714.5
2018-May-16 06:30N 37°25' E 023°31'816.4
2018-May-16 06:00N 37°32' E 023°25'1632.9
2018-May-16 05:30N 37°46' E 023°34'1121.8
2018-May-16 05:00N 37°57' E 023°39'0 0.0
2018-May-15 14:53N 37°57' E 023°39'410.4
2018-May-15 14:30N 37°58' E 023°34'0 0.0
2018-May-15 06:55N 37°58' E 023°34'0 0.0
2018-May-15 06:29N 37°58' E 023°34'0 0.1
2018-May-15 06:00N 37°58' E 023°34'3 6.8
2018-May-15 05:30N 37°56' E 023°38'  

Dump ship's entire track history